aviador You're here:

YBHM Decoded Metar

HAMILTON ISLAND in AUSTRALIA
Report Time2017-11-23 03:00:00
UTC Time2017-11-23 03:25:37
Flight Rules vfr VFR
Wind130° at 16 kt
W.Decomp.*RWY 14: 15.2 kt HW 4.9 kt LCW
W.Rank130° ranks 1
Current wind is below 130° avg. (17.2)
Visibility9999 m
Phenomena:N/A
Clouds:Scattered 029 Hf
Broken 041 Hf
Expected CloudBase > 1,600 ft AGL from Temp-Dew spread
Ceiling4,100 ft
Temp27°C (ISA +12)
Dew Point23°C (79% RH)
Heat Index29.6°C
AAT26.5°C
QNH1011 hPa
Density Alt1,841 ft
Elevation16 ft
Report Wrong Elevation
Raw Report
METAR YBHM 230300Z AUTO 13016KT 9999 // SCT029 BKN041 27/23 Q1011=

Extra information for YBHM:More info

Metar Taf Metar & Taf Last 4 Metars F.Rules Stats Wind Profile Meteogram Temp Stats Airport Information Weather charts Add Link Nearby VenuesMetar ALERT Operation Metar Decoded Social comments